createdAt,value
2023-04-25T00:01:59.128Z,1010
2023-04-25T00:03:59.613Z,1010
2023-04-25T00:05:59.512Z,1010
2023-04-25T00:07:59.144Z,1010
2023-04-25T00:09:59.853Z,1010
2023-04-25T00:11:59.588Z,1010
2023-04-25T00:13:59.122Z,1010
2023-04-25T00:15:59.538Z,1010
2023-04-25T00:17:59.163Z,1010
2023-04-25T00:19:59.128Z,1010
2023-04-25T00:21:59.121Z,1010
2023-04-25T00:23:59.519Z,1010
2023-04-25T00:25:59.134Z,1010
2023-04-25T00:27:59.600Z,1010
2023-04-25T00:29:59.471Z,1010
2023-04-25T00:31:59.209Z,1010
2023-04-25T00:33:59.531Z,1010
2023-04-25T00:35:59.131Z,1010
2023-04-25T00:37:59.127Z,1010
2023-04-25T00:39:59.123Z,1010
2023-04-25T00:41:59.122Z,1010
2023-04-25T00:43:59.488Z,1010
2023-04-25T00:45:59.607Z,1010
2023-04-25T00:47:59.651Z,1010
2023-04-25T00:49:59.571Z,1010
2023-04-25T00:51:59.118Z,1010
2023-04-25T00:53:59.124Z,1010
2023-04-25T00:55:59.523Z,1010
2023-04-25T00:57:59.120Z,1010
2023-04-25T00:59:59.124Z,1010
2023-04-25T01:01:59.179Z,1010
2023-04-25T01:03:59.178Z,1010
2023-04-25T01:05:59.157Z,1010
2023-04-25T01:07:59.151Z,1010
2023-04-25T01:09:59.138Z,1010
2023-04-25T01:11:59.168Z,1010
2023-04-25T01:13:59.873Z,1010
2023-04-25T01:15:59.141Z,1010
2023-04-25T01:17:59.173Z,1010
2023-04-25T01:19:59.604Z,1010
2023-04-25T01:21:59.128Z,1010
2023-04-25T01:23:59.859Z,1010
2023-04-25T01:25:59.125Z,1010
2023-04-25T01:27:59.604Z,1010
2023-04-25T01:29:59.597Z,1010
2023-04-25T01:31:59.142Z,1010
2023-04-25T01:33:59.135Z,1010
2023-04-25T01:35:59.141Z,1009
2023-04-25T01:37:59.129Z,1009
2023-04-25T01:39:59.863Z,1009
2023-04-25T01:41:59.857Z,1009
2023-04-25T01:43:59.149Z,1010
2023-04-25T01:45:59.177Z,1010
2023-04-25T01:47:59.178Z,1010
2023-04-25T01:49:59.126Z,1010
2023-04-25T01:51:59.146Z,1010
2023-04-25T01:54:00.969Z,1010
2023-04-25T01:55:59.130Z,1010
2023-04-25T01:57:59.509Z,1010
2023-04-25T01:59:59.139Z,1010
2023-04-25T02:03:59.227Z,1010
2023-04-25T02:05:59.135Z,1010
2023-04-25T02:07:59.165Z,1010
2023-04-25T02:09:59.499Z,1010
2023-04-25T02:13:59.499Z,1010
2023-04-25T02:15:59.146Z,1010
2023-04-25T02:17:59.187Z,1010
2023-04-25T02:19:59.887Z,1010
2023-04-25T02:21:59.158Z,1010
2023-04-25T02:23:59.867Z,1010
2023-04-25T02:28:00.382Z,1010
2023-04-25T02:29:59.587Z,1010
2023-04-25T02:31:59.500Z,1010
2023-04-25T02:33:59.134Z,1010
2023-04-25T02:37:59.605Z,1010
2023-04-25T02:39:59.155Z,1010
2023-04-25T02:41:59.168Z,1010
2023-04-25T02:43:59.136Z,1010
2023-04-25T02:45:59.506Z,1010
2023-04-25T02:47:59.153Z,1010
2023-04-25T02:49:59.137Z,1010
2023-04-25T02:51:59.146Z,1009
2023-04-25T02:54:00.635Z,1010
2023-04-25T02:55:59.160Z,1009
2023-04-25T02:57:59.533Z,1009
2023-04-25T02:59:59.485Z,1009
2023-04-25T03:01:59.132Z,1009
2023-04-25T03:03:59.602Z,1009
2023-04-25T03:07:59.130Z,1009
2023-04-25T03:09:59.145Z,1009
2023-04-25T03:11:59.159Z,1009
2023-04-25T03:13:59.158Z,1009
2023-04-25T03:15:59.138Z,1009
2023-04-25T03:17:59.186Z,1009
2023-04-25T03:21:59.142Z,1009
2023-04-25T03:23:59.501Z,1009
2023-04-25T03:25:59.151Z,1009
2023-04-25T03:27:59.136Z,1009
2023-04-25T03:29:59.155Z,1009
2023-04-25T03:31:59.168Z,1009
2023-04-25T03:33:59.137Z,1009
2023-04-25T03:35:59.597Z,1009
2023-04-25T03:37:59.144Z,1009
2023-04-25T03:39:59.146Z,1009
2023-04-25T03:41:59.137Z,1009
2023-04-25T03:43:59.166Z,1009
2023-04-25T03:45:59.153Z,1009
2023-04-25T03:47:59.161Z,1009
2023-04-25T03:49:59.902Z,1009
2023-04-25T03:51:59.171Z,1009
2023-04-25T03:53:59.160Z,1009
2023-04-25T03:55:59.151Z,1009
2023-04-25T03:57:59.145Z,1009
2023-04-25T03:59:59.588Z,1009
2023-04-25T04:01:59.881Z,1009
2023-04-25T04:03:59.461Z,1009
2023-04-25T04:07:59.171Z,1009
2023-04-25T04:09:59.167Z,1009
2023-04-25T04:11:59.148Z,1009
2023-04-25T04:13:59.552Z,1009
2023-04-25T04:15:59.574Z,1009
2023-04-25T04:17:59.188Z,1009
2023-04-25T04:19:59.169Z,1009
2023-04-25T04:21:59.161Z,1009
2023-04-25T04:23:59.174Z,1009
2023-04-25T04:25:59.247Z,1009
2023-04-25T04:27:59.896Z,1009
2023-04-25T04:29:59.156Z,1009
2023-04-25T04:31:59.213Z,1009
2023-04-25T04:33:59.152Z,1009
2023-04-25T04:35:59.166Z,1009
2023-04-25T04:37:59.158Z,1009
2023-04-25T04:39:59.671Z,1009
2023-04-25T04:43:59.516Z,1009
2023-04-25T04:45:59.595Z,1009
2023-04-25T04:49:59.912Z,1009
2023-04-25T04:53:59.910Z,1009
2023-04-25T04:55:59.177Z,1009
2023-04-25T04:57:59.891Z,1009
2023-04-25T04:59:59.203Z,1010
2023-04-25T05:01:59.164Z,1009
2023-04-25T05:03:59.298Z,1009
2023-04-25T05:05:59.172Z,1009
2023-04-25T05:07:59.159Z,1009
2023-04-25T05:09:59.199Z,1009
2023-04-25T05:11:59.609Z,1009
2023-04-25T05:13:59.155Z,1009
2023-04-25T05:15:59.167Z,1009
2023-04-25T05:17:59.548Z,1009
2023-04-25T05:19:59.151Z,1009
2023-04-25T05:21:59.159Z,1009
2023-04-25T05:25:59.155Z,1009
2023-04-25T05:27:59.155Z,1010
2023-04-25T05:29:59.176Z,1009
2023-04-25T05:31:59.950Z,1009
2023-04-25T05:33:59.164Z,1009
2023-04-25T05:35:59.216Z,1009
2023-04-25T05:37:59.649Z,1009
2023-04-25T05:39:59.152Z,1009
2023-04-25T05:41:59.156Z,1009
2023-04-25T05:43:59.311Z,1009
2023-04-25T05:45:59.176Z,1009
2023-04-25T05:47:59.153Z,1009
2023-04-25T05:49:59.179Z,1009
2023-04-25T05:51:59.155Z,1009
2023-04-25T05:53:59.627Z,1009
2023-04-25T05:55:59.148Z,1009
2023-04-25T05:57:59.860Z,1009
2023-04-25T05:59:59.164Z,1009
2023-04-25T06:01:59.156Z,1009
2023-04-25T06:03:59.648Z,1009
2023-04-25T06:05:59.269Z,1009
2023-04-25T06:07:59.155Z,1009
2023-04-25T06:09:59.525Z,1009
2023-04-25T06:11:59.564Z,1009
2023-04-25T06:13:59.154Z,1009
2023-04-25T06:15:59.203Z,1009
2023-04-25T06:17:59.170Z,1009
2023-04-25T06:19:59.173Z,1009
2023-04-25T06:21:59.163Z,1009
2023-04-25T06:23:59.158Z,1009
2023-04-25T06:25:59.153Z,1009
2023-04-25T06:27:59.651Z,1009
2023-04-25T06:29:59.167Z,1009
2023-04-25T06:31:59.557Z,1009
2023-04-25T06:35:59.520Z,1009
2023-04-25T06:37:59.183Z,1009
2023-04-25T06:39:59.538Z,1009
2023-04-25T06:41:59.151Z,1009
2023-04-25T06:43:59.542Z,1009
2023-04-25T06:45:59.617Z,1009
2023-04-25T06:47:59.704Z,1009
2023-04-25T06:49:59.215Z,1009
2023-04-25T06:51:59.532Z,1009
2023-04-25T06:53:59.193Z,1009
2023-04-25T06:55:59.194Z,1009
2023-04-25T06:57:59.200Z,1009
2023-04-25T07:00:00.295Z,1009
2023-04-25T07:01:59.932Z,1009
2023-04-25T07:03:59.360Z,1009
2023-04-25T07:05:59.228Z,1009
2023-04-25T07:07:59.216Z,1009
2023-04-25T07:09:59.196Z,1009
2023-04-25T07:11:59.200Z,1009
2023-04-25T07:13:59.222Z,1009
2023-04-25T07:15:59.236Z,1009
2023-04-25T07:17:59.235Z,1009
2023-04-25T07:23:59.223Z,1009
2023-04-25T07:25:59.208Z,1009
2023-04-25T07:27:59.200Z,1009
2023-04-25T07:29:59.225Z,1009
2023-04-25T07:31:59.607Z,1009
2023-04-25T07:35:59.247Z,1009
2023-04-25T07:39:59.227Z,1009
2023-04-25T07:41:59.634Z,1009
2023-04-25T07:43:59.940Z,1009
2023-04-25T07:45:59.648Z,1009
2023-04-25T07:47:59.232Z,1009
2023-04-25T07:49:59.222Z,1009
2023-04-25T07:51:59.203Z,1009
2023-04-25T07:53:59.206Z,1009
2023-04-25T07:55:59.205Z,1009
2023-04-25T07:57:59.208Z,1009
2023-04-25T07:59:59.649Z,1009
2023-04-25T08:01:59.678Z,1009
2023-04-25T08:03:59.881Z,1009
2023-04-25T08:05:59.312Z,1009
2023-04-25T08:07:59.197Z,1009
2023-04-25T08:09:59.211Z,1009
2023-04-25T08:11:59.201Z,1009
2023-04-25T08:15:59.254Z,1009
2023-04-25T08:17:59.243Z,1009
2023-04-25T08:19:59.217Z,1009
2023-04-25T08:23:59.249Z,1009
2023-04-25T08:25:59.228Z,1009
2023-04-25T08:27:59.667Z,1009
2023-04-25T08:29:59.193Z,1009
2023-04-25T08:31:59.206Z,1009
2023-04-25T08:33:59.571Z,1009
2023-04-25T08:35:59.233Z,1009
2023-04-25T08:37:59.211Z,1009
2023-04-25T08:41:59.942Z,1009
2023-04-25T08:43:59.981Z,1009
2023-04-25T08:45:59.197Z,1009
2023-04-25T08:47:59.249Z,1010
2023-04-25T08:49:59.895Z,1010
2023-04-25T08:51:59.236Z,1010
2023-04-25T08:54:04.920Z,1010
2023-04-25T08:55:59.669Z,1010
2023-04-25T08:57:59.219Z,1010
2023-04-25T08:59:59.228Z,1010
2023-04-25T09:01:59.658Z,1010
2023-04-25T09:03:59.296Z,1010
2023-04-25T09:07:59.948Z,1010
2023-04-25T09:09:59.631Z,1010
2023-04-25T09:11:59.231Z,1010
2023-04-25T09:13:59.232Z,1010
2023-04-25T09:17:59.664Z,1010
2023-04-25T09:19:59.603Z,1010
2023-04-25T09:21:59.973Z,1010
2023-04-25T09:23:59.280Z,1010
2023-04-25T09:25:59.228Z,1010
2023-04-25T09:27:59.690Z,1010
2023-04-25T09:29:59.269Z,1010
2023-04-25T09:31:59.303Z,1010
2023-04-25T09:34:00.204Z,1010
2023-04-25T09:35:59.259Z,1010
2023-04-25T09:37:59.235Z,1010
2023-04-25T09:39:59.274Z,1010
2023-04-25T09:41:59.963Z,1010
2023-04-25T09:43:59.391Z,1010
2023-04-25T09:45:59.375Z,1010
2023-04-25T09:47:59.297Z,1010
2023-04-25T09:49:59.260Z,1010
2023-04-25T09:51:59.261Z,1010
2023-04-25T09:54:00.019Z,1010
2023-04-25T09:55:59.259Z,1010
2023-04-25T09:57:59.657Z,1010
2023-04-25T09:59:59.316Z,1010
2023-04-25T10:01:59.243Z,1010
2023-04-25T10:05:59.263Z,1010
2023-04-25T10:07:59.702Z,1010
2023-04-25T10:09:59.255Z,1010
2023-04-25T10:11:59.600Z,1010
2023-04-25T10:15:59.283Z,1010
2023-04-25T10:17:59.314Z,1010
2023-04-25T10:21:59.272Z,1010
2023-04-25T10:23:59.298Z,1010
2023-04-25T10:26:00.300Z,1010
2023-04-25T10:27:59.430Z,1010
2023-04-25T10:29:59.233Z,1010
2023-04-25T10:33:59.272Z,1010
2023-04-25T10:35:59.250Z,1010
2023-04-25T10:37:59.304Z,1010
2023-04-25T10:39:59.270Z,1010
2023-04-25T10:41:59.330Z,1010
2023-04-25T10:43:59.269Z,1010
2023-04-25T10:45:59.269Z,1010
2023-04-25T10:47:59.244Z,1010
2023-04-25T10:50:00.252Z,1010
2023-04-25T10:51:59.626Z,1010
2023-04-25T10:55:59.956Z,1010
2023-04-25T10:57:59.803Z,1010
2023-04-25T11:01:59.352Z,1010
2023-04-25T11:04:00.239Z,1010
2023-04-25T11:08:07.513Z,1010
2023-04-25T11:09:59.318Z,1010
2023-04-25T11:11:59.274Z,1010
2023-04-25T11:13:59.270Z,1010
2023-04-25T11:16:03.772Z,1010
2023-04-25T11:17:59.718Z,1011
2023-04-25T11:19:59.731Z,1011
2023-04-25T11:21:59.294Z,1011
2023-04-25T11:23:59.974Z,1011
2023-04-25T11:25:59.274Z,1011
2023-04-25T11:27:59.609Z,1011
2023-04-25T11:29:59.247Z,1011
2023-04-25T11:31:59.767Z,1011
2023-04-25T11:33:59.271Z,1011
2023-04-25T11:35:59.676Z,1011
2023-04-25T11:37:59.971Z,1011
2023-04-25T11:39:59.270Z,1011
2023-04-25T11:41:59.341Z,1011
2023-04-25T11:45:59.300Z,1011
2023-04-25T11:47:59.265Z,1011
2023-04-25T11:49:59.276Z,1011
2023-04-25T11:51:59.268Z,1011
2023-04-25T11:53:59.643Z,1011
2023-04-25T11:55:59.273Z,1011
2023-04-25T11:59:59.270Z,1011
2023-04-25T12:01:59.256Z,1011
2023-04-25T12:03:59.380Z,1011
2023-04-25T12:05:59.406Z,1011
2023-04-25T12:07:59.279Z,1011
2023-04-25T12:09:59.281Z,1011
2023-04-25T12:11:59.419Z,1011
2023-04-25T12:13:59.291Z,1011
2023-04-25T12:15:59.296Z,1011
2023-04-25T12:17:59.306Z,1011
2023-04-25T12:19:59.252Z,1011
2023-04-25T12:21:59.598Z,1011
2023-04-25T12:23:59.302Z,1011
2023-04-25T12:25:59.761Z,1011
2023-04-25T12:27:59.274Z,1011
2023-04-25T12:29:59.632Z,1011
2023-04-25T12:32:00.081Z,1011
2023-04-25T12:33:59.260Z,1011
2023-04-25T12:35:59.287Z,1011
2023-04-25T12:39:59.294Z,1011
2023-04-25T12:41:59.288Z,1011
2023-04-25T12:43:59.261Z,1011
2023-04-25T12:45:59.298Z,1011
2023-04-25T12:47:59.594Z,1011
2023-04-25T12:49:59.744Z,1011
2023-04-25T12:52:00.017Z,1011
2023-04-25T12:54:00.027Z,1011
2023-04-25T12:55:59.679Z,1011
2023-04-25T12:57:59.636Z,1011
2023-04-25T13:00:00.037Z,1011
2023-04-25T13:01:59.328Z,1011
2023-04-25T13:05:59.269Z,1011
2023-04-25T13:07:59.255Z,1011
2023-04-25T13:09:59.280Z,1011
2023-04-25T13:11:59.423Z,1011
2023-04-25T13:13:59.252Z,1011
2023-04-25T13:15:59.727Z,1011
2023-04-25T13:17:59.847Z,1012
2023-04-25T13:19:59.970Z,1012
2023-04-25T13:23:59.317Z,1012
2023-04-25T13:25:59.715Z,1012
2023-04-25T13:27:59.997Z,1012
2023-04-25T13:29:59.266Z,1012
2023-04-25T13:31:59.295Z,1012
2023-04-25T13:35:59.277Z,1012
2023-04-25T13:37:59.623Z,1012
2023-04-25T13:39:59.653Z,1012
2023-04-25T13:41:59.311Z,1012
2023-04-25T13:43:59.286Z,1012
2023-04-25T13:45:59.659Z,1012
2023-04-25T13:47:59.329Z,1012
2023-04-25T13:49:59.267Z,1012
2023-04-25T13:51:59.269Z,1012
2023-04-25T13:53:59.726Z,1012
2023-04-25T13:55:59.288Z,1012
2023-04-25T13:57:59.256Z,1012
2023-04-25T14:01:59.820Z,1012
2023-04-25T14:03:59.276Z,1012
2023-04-25T14:05:59.625Z,1012
2023-04-25T14:08:00.383Z,1012
2023-04-25T14:09:59.276Z,1012
2023-04-25T14:11:59.267Z,1012
2023-04-25T14:13:59.268Z,1012
2023-04-25T14:19:59.628Z,1012
2023-04-25T14:21:59.290Z,1012
2023-04-25T14:23:59.292Z,1012
2023-04-25T14:25:59.300Z,1012
2023-04-25T14:27:59.289Z,1012
2023-04-25T14:29:59.291Z,1012
2023-04-25T14:31:59.299Z,1012
2023-04-25T14:34:00.354Z,1012
2023-04-25T14:35:59.272Z,1012
2023-04-25T14:37:59.260Z,1012
2023-04-25T14:39:59.261Z,1012
2023-04-25T14:41:59.653Z,1012
2023-04-25T14:45:59.292Z,1012
2023-04-25T14:47:59.389Z,1012
2023-04-25T14:49:59.272Z,1012
2023-04-25T14:51:59.283Z,1012
2023-04-25T14:53:59.270Z,1012
2023-04-25T14:55:59.281Z,1012
2023-04-25T14:57:59.266Z,1012
2023-04-25T14:59:59.509Z,1012
2023-04-25T15:01:59.950Z,1012
2023-04-25T15:03:59.721Z,1012
2023-04-25T15:05:59.271Z,1012
2023-04-25T15:07:59.271Z,1013
2023-04-25T15:09:59.662Z,1013
2023-04-25T15:11:59.287Z,1013
2023-04-25T15:13:59.302Z,1013
2023-04-25T15:15:59.280Z,1013
2023-04-25T15:17:59.741Z,1013
2023-04-25T15:19:59.291Z,1013
2023-04-25T15:21:59.281Z,1013
2023-04-25T15:23:59.280Z,1013
2023-04-25T15:25:59.269Z,1013
2023-04-25T15:27:59.729Z,1013
2023-04-25T15:29:59.357Z,1013
2023-04-25T15:31:59.331Z,1013
2023-04-25T15:33:59.739Z,1013
2023-04-25T15:37:59.288Z,1013
2023-04-25T15:39:59.727Z,1013
2023-04-25T15:41:59.299Z,1013
2023-04-25T15:43:59.289Z,1013
2023-04-25T15:45:59.316Z,1013
2023-04-25T15:47:59.362Z,1013
2023-04-25T15:49:59.739Z,1013
2023-04-25T15:51:59.655Z,1013
2023-04-25T15:53:59.303Z,1013
2023-04-25T15:55:59.268Z,1013
2023-04-25T15:59:59.269Z,1013
2023-04-25T16:01:59.375Z,1013
2023-04-25T16:03:59.923Z,1013
2023-04-25T16:05:59.273Z,1013
2023-04-25T16:07:59.280Z,1013
2023-04-25T16:11:59.297Z,1013
2023-04-25T16:13:59.273Z,1013
2023-04-25T16:15:59.289Z,1013
2023-04-25T16:17:59.296Z,1013
2023-04-25T16:19:59.621Z,1013
2023-04-25T16:21:59.344Z,1013
2023-04-25T16:23:59.296Z,1013
2023-04-25T16:25:59.283Z,1013
2023-04-25T16:27:59.743Z,1013
2023-04-25T16:29:59.326Z,1013
2023-04-25T16:31:59.757Z,1013
2023-04-25T16:33:59.298Z,1013
2023-04-25T16:35:59.301Z,1013
2023-04-25T16:37:59.276Z,1013
2023-04-25T16:39:59.287Z,1013
2023-04-25T16:41:59.659Z,1013
2023-04-25T16:43:59.300Z,1013
2023-04-25T16:45:59.302Z,1013
2023-04-25T16:47:59.366Z,1013
2023-04-25T16:50:00.141Z,1013
2023-04-25T16:51:59.305Z,1013
2023-04-25T16:53:59.294Z,1013
2023-04-25T16:55:59.310Z,1013
2023-04-25T16:58:00.344Z,1013
2023-04-25T16:59:59.324Z,1013
2023-04-25T17:01:59.778Z,1013
2023-04-25T17:03:59.586Z,1013
2023-04-25T17:05:59.303Z,1013
2023-04-25T17:11:59.985Z,1013
2023-04-25T17:13:59.289Z,1014
2023-04-25T17:15:59.281Z,1013
2023-04-25T17:19:59.330Z,1013
2023-04-25T17:21:59.312Z,1014
2023-04-25T17:23:59.324Z,1014
2023-04-25T17:25:59.762Z,1014
2023-04-25T17:29:59.307Z,1014
2023-04-25T17:31:59.306Z,1014
2023-04-25T17:33:59.316Z,1014
2023-04-25T17:35:59.272Z,1014
2023-04-25T17:37:59.301Z,1014
2023-04-25T17:39:59.651Z,1014
2023-04-25T17:42:00.809Z,1014
2023-04-25T17:43:59.730Z,1014
2023-04-25T17:45:59.290Z,1014
2023-04-25T17:47:59.303Z,1014
2023-04-25T17:51:59.312Z,1014
2023-04-25T17:53:59.674Z,1014
2023-04-25T17:55:59.761Z,1014
2023-04-25T17:57:59.305Z,1014
2023-04-25T17:59:59.311Z,1014
2023-04-25T18:03:59.380Z,1014
2023-04-25T18:05:59.314Z,1014
2023-04-25T18:07:59.278Z,1014
2023-04-25T18:09:59.280Z,1014
2023-04-25T18:11:59.322Z,1014
2023-04-25T18:14:00.048Z,1014
2023-04-25T18:15:59.287Z,1014
2023-04-25T18:17:59.316Z,1014
2023-04-25T18:19:59.275Z,1014
2023-04-25T18:21:59.754Z,1014
2023-04-25T18:23:59.310Z,1014
2023-04-25T18:25:59.764Z,1014
2023-04-25T18:27:59.278Z,1014
2023-04-25T18:31:59.393Z,1014
2023-04-25T18:33:59.304Z,1014
2023-04-25T18:35:59.889Z,1014
2023-04-25T18:37:59.290Z,1014
2023-04-25T18:39:59.293Z,1014
2023-04-25T18:42:04.539Z,1015
2023-04-25T18:43:59.293Z,1015
2023-04-25T18:46:00.071Z,1015
2023-04-25T18:48:00.500Z,1015
2023-04-25T18:49:59.801Z,1015
2023-04-25T18:51:59.320Z,1015
2023-04-25T18:53:59.281Z,1015
2023-04-25T18:55:59.288Z,1015
2023-04-25T18:58:00.019Z,1015
2023-04-25T19:01:59.322Z,1015
2023-04-25T19:04:00.492Z,1015
2023-04-25T19:05:59.292Z,1015
2023-04-25T19:07:59.283Z,1015
2023-04-25T19:09:59.650Z,1015
2023-04-25T19:11:59.297Z,1015
2023-04-25T19:13:59.715Z,1015
2023-04-25T19:15:59.680Z,1015
2023-04-25T19:17:59.327Z,1015
2023-04-25T19:19:59.292Z,1015
2023-04-25T19:23:59.284Z,1015
2023-04-25T19:25:59.646Z,1015
2023-04-25T19:28:00.722Z,1015
2023-04-25T19:29:59.312Z,1015
2023-04-25T19:31:59.330Z,1015
2023-04-25T19:35:59.287Z,1015
2023-04-25T19:37:59.285Z,1015
2023-04-25T19:39:59.740Z,1015
2023-04-25T19:41:59.310Z,1015
2023-04-25T19:43:59.306Z,1015
2023-04-25T19:45:59.800Z,1015
2023-04-25T19:50:00.690Z,1015
2023-04-25T19:51:59.711Z,1015
2023-04-25T19:53:59.672Z,1015
2023-04-25T19:55:59.303Z,1015
2023-04-25T19:58:00.011Z,1015
2023-04-25T19:59:59.294Z,1015
2023-04-25T20:03:59.692Z,1015
2023-04-25T20:05:59.684Z,1015
2023-04-25T20:08:00.033Z,1015
2023-04-25T20:09:59.288Z,1015
2023-04-25T20:13:59.288Z,1015
2023-04-25T20:16:01.304Z,1015
2023-04-25T20:17:59.346Z,1015
2023-04-25T20:19:59.806Z,1015
2023-04-25T20:21:59.294Z,1015
2023-04-25T20:24:00.053Z,1015
2023-04-25T20:25:59.316Z,1015
2023-04-25T20:27:59.311Z,1015
2023-04-25T20:29:59.312Z,1015
2023-04-25T20:32:00.234Z,1015
2023-04-25T20:33:59.371Z,1015
2023-04-25T20:35:59.312Z,1016
2023-04-25T20:37:59.324Z,1016
2023-04-25T20:39:59.742Z,1016
2023-04-25T20:41:59.362Z,1016
2023-04-25T20:43:59.292Z,1016
2023-04-25T20:45:59.345Z,1016
2023-04-25T20:47:59.311Z,1016
2023-04-25T20:49:59.288Z,1016
2023-04-25T20:51:59.293Z,1016
2023-04-25T20:54:00.020Z,1016
2023-04-25T20:57:59.297Z,1016
2023-04-25T20:59:59.542Z,1016
2023-04-25T21:01:59.695Z,1016
2023-04-25T21:03:59.953Z,1016
2023-04-25T21:05:59.700Z,1016
2023-04-25T21:07:59.336Z,1016
2023-04-25T21:09:59.670Z,1016
2023-04-25T21:11:59.684Z,1016
2023-04-25T21:13:59.697Z,1016
2023-04-25T21:15:59.312Z,1016
2023-04-25T21:17:59.346Z,1016
2023-04-25T21:21:59.390Z,1016
2023-04-25T21:23:59.321Z,1016
2023-04-25T21:29:59.309Z,1016
2023-04-25T21:31:59.702Z,1016
2023-04-25T21:33:59.330Z,1016
2023-04-25T21:35:59.310Z,1016
2023-04-25T21:37:59.314Z,1016
2023-04-25T21:39:59.319Z,1016
2023-04-25T21:41:59.682Z,1016
2023-04-25T21:43:59.791Z,1016
2023-04-25T21:46:21.280Z,1016
2023-04-25T21:47:59.748Z,1016
2023-04-25T21:49:59.408Z,1016
2023-04-25T21:51:59.323Z,1015
2023-04-25T21:53:59.666Z,1016
2023-04-25T21:55:59.328Z,1016
2023-04-25T21:57:59.330Z,1016
2023-04-25T21:59:59.344Z,1016
2023-04-25T22:01:59.702Z,1016
2023-04-25T22:03:59.407Z,1016
2023-04-25T22:05:59.313Z,1016
2023-04-25T22:09:59.930Z,1016
2023-04-25T22:12:00.083Z,1016
2023-04-25T22:13:59.304Z,1016
2023-04-25T22:15:59.342Z,1016
2023-04-25T22:17:59.332Z,1016
2023-04-25T22:19:59.306Z,1016
2023-04-25T22:21:59.310Z,1016
2023-04-25T22:23:59.296Z,1016
2023-04-25T22:25:59.308Z,1016
2023-04-25T22:30:00.337Z,1016
2023-04-25T22:31:59.408Z,1016
2023-04-25T22:33:59.322Z,1016
2023-04-25T22:37:59.336Z,1016
2023-04-25T22:39:59.323Z,1016
2023-04-25T22:41:59.745Z,1016
2023-04-25T22:43:59.747Z,1016
2023-04-25T22:45:59.319Z,1016
2023-04-25T22:47:59.385Z,1016
2023-04-25T22:51:59.656Z,1016
2023-04-25T22:55:59.332Z,1016
2023-04-25T22:57:59.313Z,1016
2023-04-25T22:59:59.329Z,1016
2023-04-25T23:01:59.353Z,1016
2023-04-25T23:03:59.483Z,1016
2023-04-25T23:05:59.750Z,1016
2023-04-25T23:07:59.305Z,1016
2023-04-25T23:09:59.312Z,1016
2023-04-25T23:11:59.319Z,1016
2023-04-25T23:13:59.316Z,1016
2023-04-25T23:15:59.342Z,1016
2023-04-25T23:17:59.795Z,1016
2023-04-25T23:19:59.309Z,1016
2023-04-25T23:21:59.350Z,1016
2023-04-25T23:23:59.330Z,1016
2023-04-25T23:25:59.797Z,1016
2023-04-25T23:27:59.352Z,1016
2023-04-25T23:30:00.107Z,1016
2023-04-25T23:31:59.312Z,1016
2023-04-25T23:33:59.737Z,1016
2023-04-25T23:35:59.318Z,1016
2023-04-25T23:38:00.063Z,1016
2023-04-25T23:41:59.703Z,1016
2023-04-25T23:43:59.351Z,1016
2023-04-25T23:45:59.360Z,1016
2023-04-25T23:47:59.408Z,1016
2023-04-25T23:51:59.346Z,1016
2023-04-25T23:53:59.305Z,1016
2023-04-25T23:55:59.748Z,1016
2023-04-25T23:58:00.254Z,1016
2023-04-25T23:59:59.347Z,1016
